sensor_id;sensor_type;location;lat;lon;timestamp;noise_LAeq;noise_LA_min;noise_LA_max;noise_LA01;noise_LA95
67320;Laerm;57665;51.436;5.978;2023-08-24T12:26:07;57.28;40.42;74.89;;
67320;Laerm;57665;51.436;5.978;2023-08-24T12:26:18;47.43;40.06;63.28;;
67320;Laerm;57665;51.436;5.978;2023-08-24T12:26:28;46.82;40.63;57.89;;
67320;Laerm;57665;51.436;5.978;2023-08-24T12:26:39;49.32;40.36;60.40;;
67320;Laerm;57665;51.436;5.978;2023-08-24T12:26:55;46.51;41.57;58.34;;
67320;Laerm;57665;51.436;5.978;2023-08-24T12:27:05;46.19;40.82;65.91;;
67320;Laerm;57665;51.436;5.978;2023-08-24T12:27:19;42.82;39.92;51.27;;
67320;Laerm;57665;51.436;5.978;2023-08-24T12:27:30;41.10;39.77;44.42;;
67320;Laerm;57665;51.436;5.978;2023-08-24T12:27:40;42.92;40.14;46.82;;
67320;Laerm;57665;51.436;5.978;2023-08-24T12:28:07;63.13;41.36;75.16;;
67320;Laerm;57665;51.436;5.978;2023-08-24T12:28:19;68.70;53.57;77.22;;
67320;Laerm;57665;51.436;5.978;2023-08-24T12:28:31;55.95;49.07;62.52;;
67320;Laerm;57665;51.436;5.978;2023-08-24T12:28:41;51.05;46.43;57.84;;
67320;Laerm;57665;51.436;5.978;2023-08-24T12:28:51;48.43;42.30;57.21;;
67320;Laerm;57665;51.436;5.978;2023-08-24T12:29:03;63.37;41.49;80.51;;
67320;Laerm;57665;51.436;5.978;2023-08-24T12:29:15;61.01;41.76;77.45;;
67320;Laerm;57665;51.436;5.978;2023-08-24T12:29:28;59.38;40.76;76.40;;
67320;Laerm;57665;51.436;5.978;2023-08-24T12:29:43;57.22;40.71;73.41;;
67320;Laerm;57665;51.436;5.978;2023-08-24T12:29:54;56.54;39.77;70.25;;
67320;Laerm;57665;51.436;5.978;2023-08-24T12:30:04;55.97;40.32;75.47;;
67320;Laerm;57665;51.436;5.978;2023-08-24T12:30:15;59.38;40.12;79.63;;
67320;Laerm;57665;51.436;5.978;2023-08-24T12:30:25;63.88;40.38;87.02;;
67320;Laerm;57665;51.436;5.978;2023-08-24T12:30:46;65.82;40.37;85.72;;
67320;Laerm;57665;51.436;5.978;2023-08-24T12:30:56;70.04;40.21;86.70;;
67320;Laerm;57665;51.436;5.978;2023-08-24T12:31:07;69.19;40.25;87.49;;
67320;Laerm;57665;51.436;5.978;2023-08-24T12:31:17;72.84;43.34;90.13;;
67320;Laerm;57665;51.436;5.978;2023-08-24T12:31:28;68.78;42.06;87.72;;
67320;Laerm;57665;51.436;5.978;2023-08-24T12:31:41;72.33;41.22;92.30;;
67320;Laerm;57665;51.436;5.978;2023-08-24T12:31:55;68.11;40.77;85.28;;
67320;Laerm;57665;51.436;5.978;2023-08-24T12:32:06;63.43;42.67;82.83;;
67320;Laerm;57665;51.436;5.978;2023-08-24T12:32:17;64.19;39.97;77.38;;
67320;Laerm;57665;51.436;5.978;2023-08-24T12:32:42;55.35;39.69;76.84;;
67320;Laerm;57665;51.436;5.978;2023-08-24T12:32:55;57.34;40.08;73.31;;
67320;Laerm;57665;51.436;5.978;2023-08-24T12:33:05;63.43;40.14;75.34;;
67320;Laerm;57665;51.436;5.978;2023-08-24T12:33:22;65.75;40.69;72.87;;
67320;Laerm;57665;51.436;5.978;2023-08-24T12:33:32;68.63;40.02;89.05;;
67320;Laerm;57665;51.436;5.978;2023-08-24T12:33:43;70.03;39.99;85.00;;
67320;Laerm;57665;51.436;5.978;2023-08-24T12:34:03;69.51;39.97;88.47;;
67320;Laerm;57665;51.436;5.978;2023-08-24T12:34:15;69.05;39.72;87.07;;
67320;Laerm;57665;51.436;5.978;2023-08-24T12:34:25;67.66;40.10;83.63;;
67320;Laerm;57665;51.436;5.978;2023-08-24T12:34:35;68.54;40.61;85.36;;
67320;Laerm;57665;51.436;5.978;2023-08-24T12:34:46;66.87;39.90;84.27;;
67320;Laerm;57665;51.436;5.978;2023-08-24T12:34:56;58.34;40.59;72.56;;
67320;Laerm;57665;51.436;5.978;2023-08-24T12:35:06;69.64;40.66;86.89;;
67320;Laerm;57665;51.436;5.978;2023-08-24T12:35:16;62.04;39.35;77.83;;
67320;Laerm;57665;51.436;5.978;2023-08-24T12:35:27;63.03;40.37;76.39;;
67320;Laerm;57665;51.436;5.978;2023-08-24T12:35:38;62.91;40.08;77.72;;
67320;Laerm;57665;51.436;5.978;2023-08-24T12:35:48;64.32;40.65;80.72;;
67320;Laerm;57665;51.436;5.978;2023-08-24T12:35:59;61.18;42.23;78.72;;
67320;Laerm;57665;51.436;5.978;2023-08-24T12:36:09;64.42;40.31;84.26;;
67320;Laerm;57665;51.436;5.978;2023-08-24T12:36:19;65.24;40.27;82.57;;
67320;Laerm;57665;51.436;5.978;2023-08-24T12:36:33;61.97;40.20;78.95;;
67320;Laerm;57665;51.436;5.978;2023-08-24T12:36:44;65.61;40.58;84.91;;
67320;Laerm;57665;51.436;5.978;2023-08-24T12:36:55;63.90;40.52;80.27;;
67320;Laerm;57665;51.436;5.978;2023-08-24T12:37:05;64.52;40.43;82.20;;
67320;Laerm;57665;51.436;5.978;2023-08-24T12:37:15;63.98;40.34;80.77;;
67320;Laerm;57665;51.436;5.978;2023-08-24T12:37:26;54.28;40.44;69.84;;
67320;Laerm;57665;51.436;5.978;2023-08-24T12:37:36;54.74;40.43;71.39;;
67320;Laerm;57665;51.436;5.978;2023-08-24T12:37:46;56.07;40.40;68.51;;
67320;Laerm;57665;51.436;5.978;2023-08-24T12:37:57;56.34;40.65;67.47;;
67320;Laerm;57665;51.436;5.978;2023-08-24T12:38:07;59.15;41.37;71.44;;
67320;Laerm;57665;51.436;5.978;2023-08-24T12:38:17;47.57;40.20;61.36;;
67320;Laerm;57665;51.436;5.978;2023-08-24T12:38:27;58.78;40.74;75.86;;
67320;Laerm;57665;51.436;5.978;2023-08-24T12:38:38;56.42;40.76;73.09;;
67320;Laerm;57665;51.436;5.978;2023-08-24T12:38:49;65.24;40.65;83.45;;
67320;Laerm;57665;51.436;5.978;2023-08-24T12:39:00;63.15;40.28;83.67;;
67320;Laerm;57665;51.436;5.978;2023-08-24T12:39:10;65.69;40.32;82.71;;
67320;Laerm;57665;51.436;5.978;2023-08-24T12:39:22;66.33;40.24;86.90;;
67320;Laerm;57665;51.436;5.978;2023-08-24T12:39:36;64.17;40.29;81.80;;
67320;Laerm;57665;51.436;5.978;2023-08-24T12:39:47;66.82;40.12;85.62;;
67320;Laerm;57665;51.436;5.978;2023-08-24T12:39:58;62.71;40.60;82.33;;
67320;Laerm;57665;51.436;5.978;2023-08-24T12:40:09;68.04;40.48;88.22;;
67320;Laerm;57665;51.436;5.978;2023-08-24T12:40:19;63.48;40.97;84.31;;
67320;Laerm;57665;51.436;5.978;2023-08-24T12:40:31;58.14;40.08;76.39;;
67320;Laerm;57665;51.436;5.978;2023-08-24T12:40:43;53.33;40.00;66.86;;
67320;Laerm;57665;51.436;5.978;2023-08-24T12:40:53;68.82;40.45;85.06;;
67320;Laerm;57665;51.436;5.978;2023-08-24T12:41:03;55.94;40.82;68.84;;
67320;Laerm;57665;51.436;5.978;2023-08-24T12:41:14;56.84;40.29;69.47;;
67320;Laerm;57665;51.436;5.978;2023-08-24T12:41:24;54.46;40.90;67.99;;
67320;Laerm;57665;51.436;5.978;2023-08-24T12:41:34;55.22;40.33;77.09;;
67320;Laerm;57665;51.436;5.978;2023-08-24T12:41:44;64.72;40.45;82.80;;
67320;Laerm;57665;51.436;5.978;2023-08-24T12:41:55;64.32;40.82;82.50;;
67320;Laerm;57665;51.436;5.978;2023-08-24T12:42:05;67.13;39.84;83.50;;
67320;Laerm;57665;51.436;5.978;2023-08-24T12:42:16;68.87;40.39;85.07;;
67320;Laerm;57665;51.436;5.978;2023-08-24T12:42:26;68.14;40.04;83.39;;
67320;Laerm;57665;51.436;5.978;2023-08-24T12:42:37;68.68;39.98;84.41;;
67320;Laerm;57665;51.436;5.978;2023-08-24T12:42:47;70.12;40.49;87.01;;
67320;Laerm;57665;51.436;5.978;2023-08-24T12:42:57;67.49;41.11;83.74;;
67320;Laerm;57665;51.436;5.978;2023-08-24T12:43:08;64.80;45.79;73.52;;
67320;Laerm;57665;51.436;5.978;2023-08-24T12:43:18;61.35;41.79;81.69;;
67320;Laerm;57665;51.436;5.978;2023-08-24T12:43:28;56.15;41.16;74.27;;
67320;Laerm;57665;51.436;5.978;2023-08-24T12:43:38;62.14;41.10;80.42;;
67320;Laerm;57665;51.436;5.978;2023-08-24T12:43:49;62.31;40.40;81.70;;
67320;Laerm;57665;51.436;5.978;2023-08-24T12:44:00;59.33;40.71;78.78;;
67320;Laerm;57665;51.436;5.978;2023-08-24T12:44:14;58.52;40.88;75.32;;
67320;Laerm;57665;51.436;5.978;2023-08-24T12:44:25;67.25;40.68;87.57;;
67320;Laerm;57665;51.436;5.978;2023-08-24T12:44:35;61.08;40.36;74.73;;
67320;Laerm;57665;51.436;5.978;2023-08-24T12:44:46;64.38;40.45;79.07;;
67320;Laerm;57665;51.436;5.978;2023-08-24T12:44:57;62.18;41.22;78.73;;
67320;Laerm;57665;51.436;5.978;2023-08-24T12:45:07;63.21;41.18;79.07;;
67320;Laerm;57665;51.436;5.978;2023-08-24T12:45:18;67.56;40.51;88.39;;
67320;Laerm;57665;51.436;5.978;2023-08-24T12:45:28;65.52;40.96;84.36;;
67320;Laerm;57665;51.436;5.978;2023-08-24T12:45:41;67.59;41.59;86.36;;
67320;Laerm;57665;51.436;5.978;2023-08-24T12:45:52;66.01;41.14;82.24;;
67320;Laerm;57665;51.436;5.978;2023-08-24T12:46:02;63.22;40.56;83.46;;
67320;Laerm;57665;51.436;5.978;2023-08-24T12:46:12;59.86;40.55;76.26;;
67320;Laerm;57665;51.436;5.978;2023-08-24T12:46:23;63.51;40.92;79.37;;
67320;Laerm;57665;51.436;5.978;2023-08-24T12:46:34;65.17;41.51;81.24;;
67320;Laerm;57665;51.436;5.978;2023-08-24T12:46:45;67.16;41.80;76.59;;
67320;Laerm;57665;51.436;5.978;2023-08-24T12:46:55;58.99;42.05;75.40;;
67320;Laerm;57665;51.436;5.978;2023-08-24T12:47:05;59.91;40.84;80.20;;
67320;Laerm;57665;51.436;5.978;2023-08-24T12:47:15;48.17;40.76;67.46;;
67320;Laerm;57665;51.436;5.978;2023-08-24T12:47:26;67.94;42.31;85.28;;
67320;Laerm;57665;51.436;5.978;2023-08-24T12:47:36;55.87;42.16;71.50;;
67320;Laerm;57665;51.436;5.978;2023-08-24T12:47:48;66.16;41.28;87.49;;
67320;Laerm;57665;51.436;5.978;2023-08-24T12:47:58;62.12;42.18;78.70;;
67320;Laerm;57665;51.436;5.978;2023-08-24T12:48:08;61.28;45.61;78.46;;
67320;Laerm;57665;51.436;5.978;2023-08-24T12:48:18;61.08;44.68;79.89;;
67320;Laerm;57665;51.436;5.978;2023-08-24T12:48:29;63.60;43.99;80.62;;
67320;Laerm;57665;51.436;5.978;2023-08-24T12:48:39;66.01;42.59;83.60;;
67320;Laerm;57665;51.436;5.978;2023-08-24T12:48:50;66.26;42.67;80.63;;
67320;Laerm;57665;51.436;5.978;2023-08-24T12:49:01;64.06;43.07;81.63;;
67320;Laerm;57665;51.436;5.978;2023-08-24T12:49:20;67.52;42.15;86.36;;
67320;Laerm;57665;51.436;5.978;2023-08-24T12:49:30;62.26;42.20;83.55;;
67320;Laerm;57665;51.436;5.978;2023-08-24T12:49:40;63.77;42.16;82.09;;
67320;Laerm;57665;51.436;5.978;2023-08-24T12:49:50;57.69;41.19;71.43;;
67320;Laerm;57665;51.436;5.978;2023-08-24T12:50:01;55.37;41.34;72.10;;
67320;Laerm;57665;51.436;5.978;2023-08-24T12:50:11;65.16;42.65;75.95;;
67320;Laerm;57665;51.436;5.978;2023-08-24T12:50:21;67.44;61.72;82.07;;
67320;Laerm;57665;51.436;5.978;2023-08-24T12:50:32;73.93;63.37;88.07;;
67320;Laerm;57665;51.436;5.978;2023-08-24T12:50:42;70.26;43.27;87.06;;
67320;Laerm;57665;51.436;5.978;2023-08-24T12:50:53;70.96;41.02;88.70;;
67320;Laerm;57665;51.436;5.978;2023-08-24T12:51:03;71.36;40.83;88.51;;
67320;Laerm;57665;51.436;5.978;2023-08-24T12:51:13;72.13;40.92;89.44;;
67320;Laerm;57665;51.436;5.978;2023-08-24T12:51:24;63.53;41.47;81.07;;
67320;Laerm;57665;51.436;5.978;2023-08-24T12:51:34;67.03;40.74;86.35;;
67320;Laerm;57665;51.436;5.978;2023-08-24T12:51:45;71.22;40.72;88.94;;
67320;Laerm;57665;51.436;5.978;2023-08-24T12:51:55;69.18;41.10;85.09;;
67320;Laerm;57665;51.436;5.978;2023-08-24T12:52:05;63.57;40.95;80.51;;
67320;Laerm;57665;51.436;5.978;2023-08-24T12:52:16;65.60;41.07;85.66;;
67320;Laerm;57665;51.436;5.978;2023-08-24T12:52:26;63.21;41.42;83.07;;
67320;Laerm;57665;51.436;5.978;2023-08-24T12:52:37;49.03;40.39;61.34;;
67320;Laerm;57665;51.436;5.978;2023-08-24T12:52:47;56.00;40.96;74.39;;
67320;Laerm;57665;51.436;5.978;2023-08-24T12:52:57;63.49;40.88;82.07;;
67320;Laerm;57665;51.436;5.978;2023-08-24T12:53:10;60.18;40.58;79.98;;
67320;Laerm;57665;51.436;5.978;2023-08-24T12:53:20;61.94;42.07;80.97;;
67320;Laerm;57665;51.436;5.978;2023-08-24T12:53:40;60.21;40.88;78.05;;
67320;Laerm;57665;51.436;5.978;2023-08-24T12:53:50;64.12;40.93;82.75;;
67320;Laerm;57665;51.436;5.978;2023-08-24T12:54:00;66.57;41.36;86.95;;
67320;Laerm;57665;51.436;5.978;2023-08-24T12:54:11;64.73;41.52;82.44;;
67320;Laerm;57665;51.436;5.978;2023-08-24T12:54:24;63.15;41.27;81.54;;
67320;Laerm;57665;51.436;5.978;2023-08-24T12:54:34;65.37;41.37;83.69;;
67320;Laerm;57665;51.436;5.978;2023-08-24T12:54:45;62.92;41.25;78.27;;
67320;Laerm;57665;51.436;5.978;2023-08-24T12:54:55;59.99;41.11;77.95;;
67320;Laerm;57665;51.436;5.978;2023-08-24T12:55:11;61.01;40.59;80.60;;
67320;Laerm;57665;51.436;5.978;2023-08-24T12:55:21;62.70;41.59;75.92;;
67320;Laerm;57665;51.436;5.978;2023-08-24T12:55:32;61.32;41.85;74.08;;
67320;Laerm;57665;51.436;5.978;2023-08-24T12:55:43;60.76;41.18;72.53;;
67320;Laerm;57665;51.436;5.978;2023-08-24T12:55:53;57.84;41.06;72.48;;
67320;Laerm;57665;51.436;5.978;2023-08-24T12:56:03;61.10;40.98;83.91;;
67320;Laerm;57665;51.436;5.978;2023-08-24T12:56:14;50.79;41.10;67.68;;
67320;Laerm;57665;51.436;5.978;2023-08-24T12:56:24;62.80;42.98;78.75;;
67320;Laerm;57665;51.436;5.978;2023-08-24T12:56:34;64.06;47.04;80.72;;
67320;Laerm;57665;51.436;5.978;2023-08-24T12:56:45;45.30;42.12;50.30;;
67320;Laerm;57665;51.436;5.978;2023-08-24T12:56:55;45.74;41.65;55.41;;
67320;Laerm;57665;51.436;5.978;2023-08-24T12:57:05;43.13;41.32;49.04;;
67320;Laerm;57665;51.436;5.978;2023-08-24T12:57:16;45.17;41.34;52.06;;
67320;Laerm;57665;51.436;5.978;2023-08-24T12:57:26;48.34;41.48;64.61;;
67320;Laerm;57665;51.436;5.978;2023-08-24T12:57:36;61.55;41.15;79.84;;
67320;Laerm;57665;51.436;5.978;2023-08-24T12:57:46;59.98;40.76;79.82;;
67320;Laerm;57665;51.436;5.978;2023-08-24T12:57:57;63.16;41.03;81.24;;
67320;Laerm;57665;51.436;5.978;2023-08-24T12:58:07;49.03;41.48;58.02;;
67320;Laerm;57665;51.436;5.978;2023-08-24T12:58:17;48.09;41.92;61.73;;
67320;Laerm;57665;51.436;5.978;2023-08-24T12:58:29;55.77;41.84;69.61;;
67320;Laerm;57665;51.436;5.978;2023-08-24T12:58:39;61.59;41.70;78.60;;
67320;Laerm;57665;51.436;5.978;2023-08-24T12:58:49;60.95;41.76;76.87;;
67320;Laerm;57665;51.436;5.978;2023-08-24T12:58:59;56.35;40.74;70.08;;
67320;Laerm;57665;51.436;5.978;2023-08-24T12:59:10;60.92;41.79;75.17;;
67320;Laerm;57665;51.436;5.978;2023-08-24T12:59:20;59.41;41.77;74.37;;
67320;Laerm;57665;51.436;5.978;2023-08-24T12:59:30;58.56;41.34;79.36;;
67320;Laerm;57665;51.436;5.978;2023-08-24T12:59:43;53.81;41.53;70.96;;
67320;Laerm;57665;51.436;5.978;2023-08-24T12:59:53;57.85;41.97;78.44;;
67320;Laerm;57665;51.436;5.978;2023-08-24T13:00:04;66.63;41.43;82.56;;
67320;Laerm;57665;51.436;5.978;2023-08-24T13:00:16;60.10;41.02;78.62;;
67320;Laerm;57665;51.436;5.978;2023-08-24T13:00:26;65.50;41.26;81.81;;
67320;Laerm;57665;51.436;5.978;2023-08-24T13:00:39;62.39;41.64;81.98;;
67320;Laerm;57665;51.436;5.978;2023-08-24T13:00:49;55.02;41.71;70.39;;
67320;Laerm;57665;51.436;5.978;2023-08-24T13:01:00;58.43;40.93;72.88;;
67320;Laerm;57665;51.436;5.978;2023-08-24T13:01:13;49.77;40.96;66.49;;
67320;Laerm;57665;51.436;5.978;2023-08-24T13:01:23;59.26;40.83;83.91;;
67320;Laerm;57665;51.436;5.978;2023-08-24T13:01:33;55.76;41.21;73.66;;
67320;Laerm;57665;51.436;5.978;2023-08-24T13:01:44;58.56;40.63;79.42;;
67320;Laerm;57665;51.436;5.978;2023-08-24T13:01:54;55.46;41.13;75.67;;
67320;Laerm;57665;51.436;5.978;2023-08-24T13:02:04;61.53;41.21;78.38;;
67320;Laerm;57665;51.436;5.978;2023-08-24T13:02:15;54.50;40.61;73.45;;
67320;Laerm;57665;51.436;5.978;2023-08-24T13:02:25;55.88;40.55;70.51;;
67320;Laerm;57665;51.436;5.978;2023-08-24T13:02:36;63.71;40.78;81.55;;
67320;Laerm;57665;51.436;5.978;2023-08-24T13:02:46;60.71;40.99;76.43;;
67320;Laerm;57665;51.436;5.978;2023-08-24T13:02:56;55.68;41.28;69.76;;
67320;Laerm;57665;51.436;5.978;2023-08-24T13:03:06;57.67;40.68;73.56;;
67320;Laerm;57665;51.436;5.978;2023-08-24T13:03:17;69.27;40.65;85.56;;
67320;Laerm;57665;51.436;5.978;2023-08-24T13:03:28;50.53;40.76;64.40;;
67320;Laerm;57665;51.436;5.978;2023-08-24T13:03:38;68.67;41.21;90.88;;
67320;Laerm;57665;51.436;5.978;2023-08-24T13:03:49;60.59;41.18;75.14;;
67320;Laerm;57665;51.436;5.978;2023-08-24T13:03:59;58.17;40.25;74.11;;
67320;Laerm;57665;51.436;5.978;2023-08-24T13:04:10;57.05;40.67;70.13;;
67320;Laerm;57665;51.436;5.978;2023-08-24T13:04:20;51.09;41.47;65.48;;
67320;Laerm;57665;51.436;5.978;2023-08-24T13:04:31;51.83;40.95;73.51;;
67320;Laerm;57665;51.436;5.978;2023-08-24T13:04:42;67.82;40.71;85.03;;
67320;Laerm;57665;51.436;5.978;2023-08-24T13:05:02;61.69;41.28;79.55;;
67320;Laerm;57665;51.436;5.978;2023-08-24T13:05:14;59.09;40.53;78.44;;
67320;Laerm;57665;51.436;5.978;2023-08-24T13:05:24;64.50;41.10;77.95;;
67320;Laerm;57665;51.436;5.978;2023-08-24T13:05:34;64.17;41.48;76.65;;
67320;Laerm;57665;51.436;5.978;2023-08-24T13:05:45;62.78;40.87;80.97;;
67320;Laerm;57665;51.436;5.978;2023-08-24T13:05:55;61.85;41.36;79.20;;
67320;Laerm;57665;51.436;5.978;2023-08-24T13:06:06;61.90;41.38;77.17;;
67320;Laerm;57665;51.436;5.978;2023-08-24T13:06:16;58.52;41.38;76.32;;
67320;Laerm;57665;51.436;5.978;2023-08-24T13:06:26;58.61;40.94;77.90;;
67320;Laerm;57665;51.436;5.978;2023-08-24T13:06:36;55.59;41.23;68.35;;
67320;Laerm;57665;51.436;5.978;2023-08-24T13:06:47;42.83;40.69;50.48;;
67320;Laerm;57665;51.436;5.978;2023-08-24T13:06:57;48.60;40.71;64.55;;
67320;Laerm;57665;51.436;5.978;2023-08-24T13:07:07;50.76;41.87;63.91;;
67320;Laerm;57665;51.436;5.978;2023-08-24T13:07:20;67.07;44.50;75.49;;
67320;Laerm;57665;51.436;5.978;2023-08-24T13:07:31;68.68;64.02;74.54;;
67320;Laerm;57665;51.436;5.978;2023-08-24T13:07:41;66.02;49.25;73.53;;
67320;Laerm;57665;51.436;5.978;2023-08-24T13:07:51;49.52;42.12;59.63;;
67320;Laerm;57665;51.436;5.978;2023-08-24T13:08:01;58.75;41.63;77.55;;
67320;Laerm;57665;51.436;5.978;2023-08-24T13:08:12;49.89;41.05;68.23;;
67320;Laerm;57665;51.436;5.978;2023-08-24T13:08:22;64.80;41.35;87.95;;
67320;Laerm;57665;51.436;5.978;2023-08-24T13:08:32;50.50;41.24;68.57;;
67320;Laerm;57665;51.436;5.978;2023-08-24T13:08:43;52.98;41.16;74.39;;
67320;Laerm;57665;51.436;5.978;2023-08-24T13:08:56;45.78;40.83;65.78;;
67320;Laerm;57665;51.436;5.978;2023-08-24T13:09:06;60.58;41.22;80.69;;
67320;Laerm;57665;51.436;5.978;2023-08-24T13:09:16;45.80;40.95;58.82;;
67320;Laerm;57665;51.436;5.978;2023-08-24T13:09:28;55.52;40.80;72.93;;
67320;Laerm;57665;51.436;5.978;2023-08-24T13:09:38;51.59;41.33;69.08;;
67320;Laerm;57665;51.436;5.978;2023-08-24T13:09:49;49.83;40.75;66.13;;
67320;Laerm;57665;51.436;5.978;2023-08-24T13:09:59;49.49;40.93;63.04;;
67320;Laerm;57665;51.436;5.978;2023-08-24T13:10:10;50.31;41.37;68.06;;
67320;Laerm;57665;51.436;5.978;2023-08-24T13:10:21;58.24;41.27;72.43;;
67320;Laerm;57665;51.436;5.978;2023-08-24T13:10:31;53.37;42.74;66.92;;
67320;Laerm;57665;51.436;5.978;2023-08-24T13:10:41;59.52;41.60;73.08;;
67320;Laerm;57665;51.436;5.978;2023-08-24T13:10:52;51.90;41.02;66.88;;
67320;Laerm;57665;51.436;5.978;2023-08-24T13:11:02;59.26;41.41;74.77;;
67320;Laerm;57665;51.436;5.978;2023-08-24T13:11:12;59.40;40.42;78.89;;
67320;Laerm;57665;51.436;5.978;2023-08-24T13:11:23;54.93;40.52;69.28;;
67320;Laerm;57665;51.436;5.978;2023-08-24T13:11:33;59.98;40.33;74.15;;
67320;Laerm;57665;51.436;5.978;2023-08-24T13:11:43;45.76;39.74;63.85;;
67320;Laerm;57665;51.436;5.978;2023-08-24T13:11:54;52.87;40.78;65.45;;
67320;Laerm;57665;51.436;5.978;2023-08-24T13:12:04;48.89;40.22;62.51;;
67320;Laerm;57665;51.436;5.978;2023-08-24T13:12:14;51.84;40.53;73.24;;
67320;Laerm;57665;51.436;5.978;2023-08-24T13:12:24;50.88;41.00;67.63;;
67320;Laerm;57665;51.436;5.978;2023-08-24T13:12:35;45.37;41.02;59.46;;
67320;Laerm;57665;51.436;5.978;2023-08-24T13:12:45;64.54;40.56;82.80;;
67320;Laerm;57665;51.436;5.978;2023-08-24T13:12:56;67.58;45.78;75.83;;
67320;Laerm;57665;51.436;5.978;2023-08-24T13:13:07;52.46;41.15;65.59;;
67320;Laerm;57665;51.436;5.978;2023-08-24T13:13:17;50.28;40.65;66.35;;
67320;Laerm;57665;51.436;5.978;2023-08-24T13:13:27;54.51;41.03;68.97;;
67320;Laerm;57665;51.436;5.978;2023-08-24T13:13:41;51.49;41.72;67.21;;
67320;Laerm;57665;51.436;5.978;2023-08-24T13:13:52;44.28;41.18;58.85;;
67320;Laerm;57665;51.436;5.978;2023-08-24T13:14:02;43.42;40.82;47.08;;
67320;Laerm;57665;51.436;5.978;2023-08-24T13:14:12;46.14;41.56;53.80;;
67320;Laerm;57665;51.436;5.978;2023-08-24T13:14:22;46.74;40.54;59.35;;
67320;Laerm;57665;51.436;5.978;2023-08-24T13:14:33;41.47;40.07;49.20;;
67320;Laerm;57665;51.436;5.978;2023-08-24T13:14:43;42.14;40.17;48.97;;
67320;Laerm;57665;51.436;5.978;2023-08-24T13:14:53;48.56;41.77;67.30;;
67320;Laerm;57665;51.436;5.978;2023-08-24T13:15:03;55.38;46.76;62.08;;
67320;Laerm;57665;51.436;5.978;2023-08-24T13:15:14;64.71;43.07;80.12;;
67320;Laerm;57665;51.436;5.978;2023-08-24T13:15:25;50.25;41.00;64.48;;
67320;Laerm;57665;51.436;5.978;2023-08-24T13:15:36;42.94;40.56;46.36;;
67320;Laerm;57665;51.436;5.978;2023-08-24T13:15:48;47.96;40.57;66.99;;
67320;Laerm;57665;51.436;5.978;2023-08-24T13:15:59;43.07;40.83;53.25;;
67320;Laerm;57665;51.436;5.978;2023-08-24T13:16:09;41.75;40.60;44.14;;
67320;Laerm;57665;51.436;5.978;2023-08-24T13:16:19;42.18;40.74;45.85;;
67320;Laerm;57665;51.436;5.978;2023-08-24T13:16:30;46.53;41.05;62.86;;
67320;Laerm;57665;51.436;5.978;2023-08-24T13:16:40;47.48;40.61;60.56;;
67320;Laerm;57665;51.436;5.978;2023-08-24T13:17:00;58.08;40.14;72.24;;
67320;Laerm;57665;51.436;5.978;2023-08-24T13:17:10;65.51;41.65;76.33;;
67320;Laerm;57665;51.436;5.978;2023-08-24T13:17:26;50.27;40.39;69.24;;
67320;Laerm;57665;51.436;5.978;2023-08-24T13:17:37;46.44;40.46;67.83;;
67320;Laerm;57665;51.436;5.978;2023-08-24T13:17:47;43.08;40.39;55.76;;
67320;Laerm;57665;51.436;5.978;2023-08-24T13:17:57;42.83;40.33;54.71;;
67320;Laerm;57665;51.436;5.978;2023-08-24T13:18:07;45.77;40.69;56.62;;
67320;Laerm;57665;51.436;5.978;2023-08-24T13:18:23;48.32;40.47;67.88;;
67320;Laerm;57665;51.436;5.978;2023-08-24T13:18:34;42.29;40.53;47.45;;
67320;Laerm;57665;51.436;5.978;2023-08-24T13:18:44;43.90;40.53;60.68;;
67320;Laerm;57665;51.436;5.978;2023-08-24T13:19:02;46.12;40.34;65.82;;
67320;Laerm;57665;51.436;5.978;2023-08-24T13:19:13;53.05;40.10;74.85;;
67320;Laerm;57665;51.436;5.978;2023-08-24T13:19:23;41.91;40.11;55.99;;
67320;Laerm;57665;51.436;5.978;2023-08-24T13:19:33;42.61;40.61;47.32;;
67320;Laerm;57665;51.436;5.978;2023-08-24T13:19:44;41.82;40.29;43.82;;
67320;Laerm;57665;51.436;5.978;2023-08-24T13:19:55;44.88;40.16;64.76;;
67320;Laerm;57665;51.436;5.978;2023-08-24T13:20:05;41.61;40.50;43.07;;
67320;Laerm;57665;51.436;5.978;2023-08-24T13:20:16;42.65;40.13;52.59;;
67320;Laerm;57665;51.436;5.978;2023-08-24T13:20:26;41.85;40.28;49.11;;
67320;Laerm;57665;51.436;5.978;2023-08-24T13:20:37;41.70;40.37;47.60;;
67320;Laerm;57665;51.436;5.978;2023-08-24T13:20:47;42.53;40.29;45.03;;
67320;Laerm;57665;51.436;5.978;2023-08-24T13:20:57;45.79;41.59;59.95;;
67320;Laerm;57665;51.436;5.978;2023-08-24T13:21:07;42.74;40.89;45.06;;
67320;Laerm;57665;51.436;5.978;2023-08-24T13:21:18;49.23;40.43;72.38;;
67320;Laerm;57665;51.436;5.978;2023-08-24T13:21:28;45.39;40.42;64.08;;
67320;Laerm;57665;51.436;5.978;2023-08-24T13:21:38;42.66;40.72;48.97;;
67320;Laerm;57665;51.436;5.978;2023-08-24T13:21:48;41.66;40.06;46.50;;
67320;Laerm;57665;51.436;5.978;2023-08-24T13:21:58;41.58;40.36;43.76;;
67320;Laerm;57665;51.436;5.978;2023-08-24T13:22:09;41.40;40.46;42.58;;
67320;Laerm;57665;51.436;5.978;2023-08-24T13:22:19;43.06;40.33;58.06;;
67320;Laerm;57665;51.436;5.978;2023-08-24T13:22:29;41.81;40.33;49.36;;
67320;Laerm;57665;51.436;5.978;2023-08-24T13:22:39;45.06;40.49;62.20;;
67320;Laerm;57665;51.436;5.978;2023-08-24T13:22:50;47.10;41.07;61.53;;
67320;Laerm;57665;51.436;5.978;2023-08-24T13:23:00;43.38;40.62;52.47;;
67320;Laerm;57665;51.436;5.978;2023-08-24T13:23:10;43.62;41.90;48.58;;
67320;Laerm;57665;51.436;5.978;2023-08-24T13:23:21;44.67;40.41;53.65;;
67320;Laerm;57665;51.436;5.978;2023-08-24T13:23:31;43.32;40.77;52.20;;
67320;Laerm;57665;51.436;5.978;2023-08-24T13:23:41;44.85;41.13;57.92;;
67320;Laerm;57665;51.436;5.978;2023-08-24T13:23:51;44.92;40.61;50.65;;
67320;Laerm;57665;51.436;5.978;2023-08-24T13:24:02;43.81;40.40;52.85;;
67320;Laerm;57665;51.436;5.978;2023-08-24T13:24:12;59.49;41.96;68.36;;
67320;Laerm;57665;51.436;5.978;2023-08-24T13:24:23;65.64;61.08;74.13;;
67320;Laerm;57665;51.436;5.978;2023-08-24T13:24:33;64.97;51.19;70.36;;
67320;Laerm;57665;51.436;5.978;2023-08-24T13:24:43;45.62;40.90;55.64;;
67320;Laerm;57665;51.436;5.978;2023-08-24T13:24:54;42.99;40.90;46.35;;
67320;Laerm;57665;51.436;5.978;2023-08-24T13:25:05;45.37;41.22;59.80;;
67320;Laerm;57665;51.436;5.978;2023-08-24T13:25:15;44.10;40.48;49.26;;
67320;Laerm;57665;51.436;5.978;2023-08-24T13:25:25;44.94;40.41;63.70;;
67320;Laerm;57665;51.436;5.978;2023-08-24T13:25:36;43.87;40.64;49.77;;
67320;Laerm;57665;51.436;5.978;2023-08-24T13:25:46;46.62;40.17;59.86;;
67320;Laerm;57665;51.436;5.978;2023-08-24T13:25:57;55.41;40.37;70.48;;
67320;Laerm;57665;51.436;5.978;2023-08-24T13:26:16;54.70;40.61;72.79;;
67320;Laerm;57665;51.436;5.978;2023-08-24T13:26:26;45.94;40.53;63.81;;
67320;Laerm;57665;51.436;5.978;2023-08-24T13:26:36;44.18;41.51;47.51;;
67320;Laerm;57665;51.436;5.978;2023-08-24T13:26:47;53.80;40.80;69.05;;
67320;Laerm;57665;51.436;5.978;2023-08-24T13:26:57;54.99;40.73;67.35;;
67320;Laerm;57665;51.436;5.978;2023-08-24T13:27:07;56.35;40.64;71.69;;
67320;Laerm;57665;51.436;5.978;2023-08-24T13:27:21;51.75;40.24;62.58;;
67320;Laerm;57665;51.436;5.978;2023-08-24T13:27:31;53.08;40.58;64.53;;
67320;Laerm;57665;51.436;5.978;2023-08-24T13:27:41;53.69;40.54;67.21;;